aviador You're here:

KCOU Decoded Metar

COLUMBIA in MO, USA
Report Time2018-04-24 01:54:00
UTC Time2018-04-24 02:53:45
Flight Rules vfr VFR
Wind040° at 07 kt
W.Decomp.*RWY 02: 6.7 kt HW 2.0 kt RCW
RWY 31: 0.4 kt HW 7.0 kt RCW
W.Rank040° ranks 34
Current wind is below 040° avg. (7.4)
Visibility9999 m
Phenomena:N/A
Clouds:N/A
Expected CloudBase > 4,800 ft AGL from Temp-Dew spread
CeilingNone
Temp18°C (ISA +5)
Dew Point06°C (46% RH)
AAT14.6°C
QNH1016 hPa
Density Alt1,476 ft
Elevation889 ft
Report Wrong Elevation
Raw Report
KCOU 240154Z 04007KT 10SM CLR 18/06 A3000 RMK AO2 SLP156
T01780056=

Extra information for KCOU:More info

Metar Taf Metar & Taf Last 4 Metars F.Rules Stats Wind Profile Meteogram Temp Stats Airport Information Weather charts Add Link Nearby VenuesMetar ALERT Operation Metar Decoded Social comments

AIRNAV info for KCOU